Milwaukee, Wisconsin
Traffic Map
Current Weather Conditions
Milwaukee, Wisconsin
Few Clouds
Few Clouds
23°
Feels Like: 23°
Wind Chill: 23° Ceiling: Unl
Heat Index: 23° Visibility: 10mi
Dew Point: 21° Wind: 9mph
Humidity: 87% Direction: 230° (SW)
Pressure: 29.92in Gusts: 0mph
Raw Report DataKMKE 030852Z 23008KT 10SM FEW090 23/21 A2992 RMK AO2 SLP127 T02280206 56005
Traffic Incident Summary
Active as of:
Severity:
Category:
InformationThere was an issue retrieving the traffic information for this location. Please try a different location or try again shortly.
Advertisements
Track Severe Weather on mobile